createdAt,value
2022-08-09T00:00:12.047Z,18.89
2022-08-09T00:02:49.622Z,18.95
2022-08-09T00:06:17.500Z,18.90
2022-08-09T00:08:12.827Z,18.88
2022-08-09T00:10:59.015Z,18.80
2022-08-09T00:13:25.732Z,18.78
2022-08-09T00:15:58.636Z,18.89
2022-08-09T00:18:27.108Z,18.82
2022-08-09T00:20:55.783Z,18.87
2022-08-09T00:23:56.663Z,18.82
2022-08-09T00:26:10.981Z,18.81
2022-08-09T00:28:38.499Z,18.77
2022-08-09T00:31:09.380Z,18.83
2022-08-09T00:33:53.851Z,18.81
2022-08-09T00:36:22.430Z,18.83
2022-08-09T00:38:56.474Z,18.78
2022-08-09T00:44:14.247Z,18.77
2022-08-09T00:44:25.513Z,18.71
2022-08-09T00:46:57.292Z,18.70
2022-08-09T00:49:36.937Z,18.74
2022-08-09T00:52:17.279Z,18.79
2022-08-09T00:54:45.824Z,18.77
2022-08-09T00:57:13.698Z,18.73
2022-08-09T00:59:46.220Z,18.70
2022-08-09T01:02:23.108Z,18.71
2022-08-09T01:05:22.142Z,18.73
2022-08-09T01:08:05.638Z,18.72
2022-08-09T01:10:40.119Z,18.69
2022-08-09T01:13:41.804Z,18.50
2022-08-09T01:16:23.811Z,18.55
2022-08-09T01:19:02.297Z,18.59
2022-08-09T01:21:51.102Z,18.57
2022-08-09T01:24:50.376Z,18.61
2022-08-09T01:27:20.686Z,18.60
2022-08-09T01:30:00.762Z,18.68
2022-08-09T01:32:34.283Z,18.68
2022-08-09T01:35:07.126Z,18.64
2022-08-09T01:38:09.846Z,18.63
2022-08-09T01:40:33.857Z,18.68
2022-08-09T01:43:03.592Z,18.61
2022-08-09T01:45:30.994Z,18.60
2022-08-09T01:47:58.959Z,18.54
2022-08-09T01:50:30.003Z,18.48
2022-08-09T01:53:19.168Z,18.54
2022-08-09T01:55:48.086Z,18.51
2022-08-09T01:58:16.650Z,18.50
2022-08-09T02:00:46.328Z,18.49
2022-08-09T02:03:18.575Z,18.48
2022-08-09T02:06:04.021Z,18.51
2022-08-09T02:08:58.119Z,18.45
2022-08-09T02:11:23.686Z,18.40
2022-08-09T02:14:07.360Z,18.43
2022-08-09T02:16:59.288Z,18.41
2022-08-09T02:19:23.793Z,18.40
2022-08-09T02:21:55.625Z,18.40
2022-08-09T02:24:25.730Z,18.39
2022-08-09T02:26:58.822Z,18.41
2022-08-09T02:29:27.957Z,18.43
2022-08-09T02:31:59.849Z,18.41
2022-08-09T02:34:40.409Z,18.40
2022-08-09T02:37:12.440Z,18.36
2022-08-09T02:39:45.082Z,18.42
2022-08-09T02:42:19.384Z,18.43
2022-08-09T02:45:08.983Z,18.42
2022-08-09T02:47:58.010Z,18.40
2022-08-09T02:50:27.470Z,18.43
2022-08-09T02:52:58.127Z,18.42
2022-08-09T02:55:39.467Z,18.39
2022-08-09T02:58:37.009Z,18.36
2022-08-09T03:01:04.367Z,18.32
2022-08-09T03:04:12.470Z,18.35
2022-08-09T03:06:21.518Z,18.35
2022-08-09T03:08:50.015Z,18.43
2022-08-09T03:12:04.365Z,18.32
2022-08-09T03:14:07.245Z,18.41
2022-08-09T03:16:37.415Z,18.46
2022-08-09T03:19:16.746Z,18.44
2022-08-09T03:21:57.260Z,18.50
2022-08-09T03:24:42.827Z,18.48
2022-08-09T03:27:13.836Z,18.42
2022-08-09T03:29:56.976Z,18.37
2022-08-09T03:32:29.800Z,18.40
2022-08-09T03:34:58.131Z,18.41
2022-08-09T03:37:54.859Z,18.36
2022-08-09T03:40:13.116Z,18.33
2022-08-09T03:42:43.166Z,18.36
2022-08-09T03:45:10.950Z,18.34
2022-08-09T03:47:40.040Z,18.33
2022-08-09T03:50:10.123Z,18.31
2022-08-09T03:52:39.062Z,18.30
2022-08-09T03:55:07.506Z,18.28
2022-08-09T03:57:44.805Z,18.23
2022-08-09T04:00:20.638Z,18.19
2022-08-09T04:02:52.768Z,18.19
2022-08-09T04:05:27.655Z,18.21
2022-08-09T04:07:57.157Z,18.23
2022-08-09T04:10:29.419Z,18.19
2022-08-09T04:13:01.351Z,18.26
2022-08-09T04:16:17.421Z,18.26
2022-08-09T04:18:21.528Z,18.28
2022-08-09T04:20:49.149Z,18.25
2022-08-09T04:23:16.692Z,18.25
2022-08-09T04:25:45.048Z,18.23
2022-08-09T04:28:33.941Z,18.30
2022-08-09T04:31:09.119Z,18.26
2022-08-09T04:33:47.475Z,18.24
2022-08-09T04:36:24.740Z,18.23
2022-08-09T04:38:52.594Z,18.23
2022-08-09T04:41:19.726Z,18.31
2022-08-09T04:44:05.998Z,18.28
2022-08-09T04:46:56.735Z,18.23
2022-08-09T04:49:30.170Z,18.24
2022-08-09T04:52:07.441Z,18.21
2022-08-09T04:54:36.415Z,18.29
2022-08-09T04:57:03.762Z,18.23
2022-08-09T04:59:31.125Z,18.20
2022-08-09T05:01:58.031Z,18.18
2022-08-09T05:04:30.626Z,18.20
2022-08-09T05:06:57.989Z,18.23
2022-08-09T05:09:24.965Z,18.32
2022-08-09T05:12:09.634Z,18.37
2022-08-09T05:14:37.931Z,18.38
2022-08-09T05:18:36.933Z,18.34
2022-08-09T05:19:57.011Z,18.31
2022-08-09T05:22:36.141Z,18.30
2022-08-09T05:25:12.359Z,18.31
2022-08-09T05:27:46.301Z,18.22
2022-08-09T05:30:15.978Z,18.25
2022-08-09T05:32:45.567Z,18.32
2022-08-09T05:35:22.021Z,18.34
2022-08-09T05:37:50.284Z,18.31
2022-08-09T05:40:18.365Z,18.30
2022-08-09T05:42:46.031Z,18.39
2022-08-09T05:45:14.186Z,18.39
2022-08-09T05:47:45.573Z,18.40
2022-08-09T05:50:32.490Z,18.44
2022-08-09T05:53:05.519Z,18.46
2022-08-09T05:55:38.499Z,18.45
2022-08-09T05:58:07.268Z,18.46
2022-08-09T06:00:34.176Z,18.52
2022-08-09T06:03:02.535Z,18.57
2022-08-09T06:05:50.436Z,18.61
2022-08-09T06:08:24.375Z,18.66
2022-08-09T06:10:53.769Z,18.70
2022-08-09T06:13:21.074Z,18.67
2022-08-09T06:15:51.286Z,18.66
2022-08-09T06:18:23.895Z,18.74
2022-08-09T06:20:56.452Z,18.87
2022-08-09T06:23:57.715Z,18.95
2022-08-09T06:26:20.786Z,18.99
2022-08-09T06:28:59.626Z,19.04
2022-08-09T06:31:30.462Z,19.13
2022-08-09T06:33:58.390Z,19.26
2022-08-09T06:36:27.025Z,19.32
2022-08-09T06:38:54.325Z,19.33
2022-08-09T06:42:06.363Z,19.32
2022-08-09T06:44:18.296Z,19.33
2022-08-09T06:46:50.590Z,19.46
2022-08-09T06:49:29.335Z,19.37
2022-08-09T06:52:25.452Z,19.41
2022-08-09T06:54:54.025Z,19.34
2022-08-09T06:57:42.551Z,19.38
2022-08-09T07:00:58.427Z,19.59
2022-08-09T07:04:04.705Z,19.69
2022-08-09T07:06:31.666Z,19.79
2022-08-09T07:08:58.425Z,20.10
2022-08-09T07:11:25.510Z,20.27
2022-08-09T07:14:05.062Z,20.24
2022-08-09T07:16:41.781Z,20.33
2022-08-09T07:19:15.814Z,20.31
2022-08-09T07:21:55.812Z,20.36
2022-08-09T07:24:32.642Z,20.50
2022-08-09T07:27:11.025Z,20.47
2022-08-09T07:29:58.396Z,20.52
2022-08-09T07:32:33.680Z,20.60
2022-08-09T07:35:10.209Z,20.73
2022-08-09T07:37:45.446Z,20.82
2022-08-09T07:40:17.374Z,20.86
2022-08-09T07:42:48.723Z,20.98
2022-08-09T07:45:23.763Z,21.13
2022-08-09T07:48:04.989Z,21.17
2022-08-09T07:50:34.881Z,21.19
2022-08-09T07:53:04.678Z,21.19
2022-08-09T07:55:41.240Z,21.11
2022-08-09T07:58:21.656Z,21.03
2022-08-09T08:00:56.201Z,21.09
2022-08-09T08:03:33.299Z,21.15
2022-08-09T08:06:04.143Z,21.00
2022-08-09T08:08:59.895Z,21.10
2022-08-09T08:12:11.045Z,21.25
2022-08-09T08:14:10.003Z,21.23
2022-08-09T08:16:39.670Z,21.24
2022-08-09T08:19:17.698Z,21.27
2022-08-09T08:21:50.876Z,21.45
2022-08-09T08:24:19.693Z,21.46
2022-08-09T08:26:56.216Z,21.45
2022-08-09T08:29:27.436Z,21.54
2022-08-09T08:32:04.533Z,21.58
2022-08-09T08:34:34.677Z,21.63
2022-08-09T08:37:03.318Z,21.64
2022-08-09T08:39:39.577Z,21.77
2022-08-09T08:42:10.684Z,21.74
2022-08-09T08:44:37.454Z,21.72
2022-08-09T08:47:13.059Z,21.86
2022-08-09T08:49:48.672Z,21.90
2022-08-09T08:52:57.550Z,21.96
2022-08-09T08:55:09.037Z,21.93
2022-08-09T08:57:37.442Z,21.98
2022-08-09T09:00:13.068Z,22.00
2022-08-09T09:02:52.708Z,22.07
2022-08-09T09:05:33.015Z,22.14
2022-08-09T09:08:30.142Z,22.26
2022-08-09T09:11:03.071Z,22.27
2022-08-09T09:13:41.606Z,22.25
2022-08-09T09:16:18.869Z,22.28
2022-08-09T09:19:22.791Z,22.44
2022-08-09T09:22:11.337Z,22.44
2022-08-09T09:24:45.202Z,22.45
2022-08-09T09:28:02.858Z,22.58
2022-08-09T09:30:19.276Z,22.66
2022-08-09T09:33:15.446Z,22.71
2022-08-09T09:36:02.217Z,22.71
2022-08-09T09:38:45.418Z,22.83
2022-08-09T09:41:27.942Z,22.92
2022-08-09T09:44:12.012Z,22.95
2022-08-09T09:46:50.652Z,22.91
2022-08-09T09:49:32.149Z,23.03
2022-08-09T09:52:35.811Z,23.20
2022-08-09T09:55:27.612Z,23.25
2022-08-09T09:58:16.236Z,23.21
2022-08-09T10:00:53.876Z,23.22
2022-08-09T10:03:42.596Z,23.13
2022-08-09T10:06:10.189Z,23.13
2022-08-09T10:08:54.225Z,23.20
2022-08-09T10:11:59.139Z,23.31
2022-08-09T10:14:27.397Z,23.44
2022-08-09T10:17:05.265Z,23.45
2022-08-09T10:19:45.797Z,23.75
2022-08-09T10:22:12.933Z,23.83
2022-08-09T10:24:41.033Z,23.85
2022-08-09T10:27:10.191Z,24.06
2022-08-09T10:30:43.893Z,24.23
2022-08-09T10:32:48.530Z,24.26
2022-08-09T10:35:16.613Z,24.35
2022-08-09T10:37:46.584Z,24.62
2022-08-09T10:40:33.417Z,24.76
2022-08-09T10:43:00.159Z,24.79
2022-08-09T10:45:31.589Z,24.96
2022-08-09T10:48:19.461Z,25.11
2022-08-09T10:51:15.037Z,25.15
2022-08-09T10:54:12.976Z,25.32
2022-08-09T10:56:41.571Z,25.33
2022-08-09T10:59:31.405Z,25.30
2022-08-09T11:03:13.339Z,25.16
2022-08-09T11:05:24.919Z,25.09
2022-08-09T11:07:59.455Z,24.82
2022-08-09T11:10:47.016Z,24.58
2022-08-09T11:13:49.302Z,24.78
2022-08-09T11:16:33.443Z,24.87
2022-08-09T11:19:01.638Z,24.94
2022-08-09T11:21:57.305Z,25.13
2022-08-09T11:25:05.626Z,25.19
2022-08-09T11:28:02.679Z,25.57
2022-08-09T11:30:33.694Z,25.91
2022-08-09T11:33:19.822Z,25.86
2022-08-09T11:35:50.249Z,26.07
2022-08-09T11:38:28.883Z,25.89
2022-08-09T11:41:38.080Z,25.52
2022-08-09T11:44:06.807Z,25.35
2022-08-09T11:46:57.293Z,24.93
2022-08-09T11:50:53.893Z,24.64
2022-08-09T11:53:02.535Z,24.53
2022-08-09T11:55:53.538Z,24.43
2022-08-09T11:58:32.997Z,24.33
2022-08-09T12:01:09.022Z,24.31
2022-08-09T12:03:56.939Z,24.37
2022-08-09T12:06:31.902Z,24.50
2022-08-09T12:09:01.502Z,24.54
2022-08-09T12:11:28.863Z,24.56
2022-08-09T12:14:07.017Z,24.68
2022-08-09T12:16:40.330Z,24.69
2022-08-09T12:19:13.210Z,24.74
2022-08-09T12:21:48.447Z,24.89
2022-08-09T12:24:24.671Z,24.96
2022-08-09T12:29:00.186Z,25.24
2022-08-09T12:30:00.145Z,25.66
2022-08-09T12:32:31.455Z,26.07
2022-08-09T12:35:04.536Z,26.18
2022-08-09T12:37:33.633Z,26.25
2022-08-09T12:40:11.791Z,26.60
2022-08-09T12:42:44.052Z,26.35
2022-08-09T12:45:33.888Z,25.86
2022-08-09T12:47:58.974Z,25.55
2022-08-09T12:50:25.838Z,25.39
2022-08-09T12:53:08.443Z,25.26
2022-08-09T12:56:15.478Z,25.27
2022-08-09T12:58:27.699Z,25.23
2022-08-09T13:00:55.786Z,25.19
2022-08-09T13:03:53.074Z,25.52
2022-08-09T13:06:37.471Z,26.22
2022-08-09T13:09:07.692Z,26.66
2022-08-09T13:11:39.246Z,27.07
2022-08-09T13:14:42.753Z,27.12
2022-08-09T13:17:03.525Z,27.14
2022-08-09T13:20:08.588Z,26.96
2022-08-09T13:23:00.419Z,26.78
2022-08-09T13:25:14.219Z,26.64
2022-08-09T13:27:55.000Z,26.40
2022-08-09T13:30:50.194Z,26.44
2022-08-09T13:33:17.232Z,26.41
2022-08-09T13:36:39.506Z,26.85
2022-08-09T13:38:55.417Z,26.93
2022-08-09T13:41:57.643Z,26.70
2022-08-09T13:44:13.667Z,26.52
2022-08-09T13:47:18.486Z,26.21
2022-08-09T13:49:38.038Z,26.05
2022-08-09T13:52:08.973Z,25.84
2022-08-09T13:54:36.691Z,25.80
2022-08-09T13:57:14.412Z,25.94
2022-08-09T13:59:58.163Z,25.95
2022-08-09T14:02:25.699Z,25.93
2022-08-09T14:05:00.017Z,25.94
2022-08-09T14:07:30.310Z,25.97
2022-08-09T14:10:17.259Z,25.84
2022-08-09T14:12:44.560Z,25.78
2022-08-09T14:16:02.108Z,25.74
2022-08-09T14:18:19.514Z,25.87
2022-08-09T14:20:45.702Z,25.94
2022-08-09T14:23:20.247Z,25.69
2022-08-09T14:25:51.472Z,25.56
2022-08-09T14:28:19.223Z,25.46
2022-08-09T14:30:47.777Z,25.50
2022-08-09T14:33:20.743Z,26.01
2022-08-09T14:35:52.025Z,26.06
2022-08-09T14:38:19.868Z,26.35
2022-08-09T14:41:04.478Z,26.61
2022-08-09T14:43:47.634Z,26.75
2022-08-09T14:46:55.001Z,26.51
2022-08-09T14:49:06.919Z,26.24
2022-08-09T14:51:42.331Z,26.00
2022-08-09T14:54:09.680Z,25.97
2022-08-09T14:56:57.839Z,25.78
2022-08-09T14:59:23.668Z,25.80
2022-08-09T15:01:50.531Z,26.14
2022-08-09T15:04:17.234Z,25.98
2022-08-09T15:06:49.680Z,25.89
2022-08-09T15:09:30.408Z,25.81
2022-08-09T15:12:05.230Z,25.88
2022-08-09T15:14:38.553Z,25.89
2022-08-09T15:17:09.882Z,25.97
2022-08-09T15:19:58.933Z,26.30
2022-08-09T15:22:25.970Z,26.68
2022-08-09T15:24:54.403Z,26.87
2022-08-09T15:27:21.924Z,26.78
2022-08-09T15:30:59.469Z,26.60
2022-08-09T15:32:35.873Z,26.36
2022-08-09T15:35:18.294Z,26.36
2022-08-09T15:38:03.984Z,26.46
2022-08-09T15:40:37.966Z,26.26
2022-08-09T15:43:13.219Z,26.22
2022-08-09T15:46:07.703Z,26.13
2022-08-09T15:48:31.829Z,25.94
2022-08-09T15:51:02.478Z,25.86
2022-08-09T15:54:04.757Z,25.85
2022-08-09T15:56:35.965Z,25.76
2022-08-09T15:59:02.690Z,25.99
2022-08-09T16:01:31.110Z,26.37
2022-08-09T16:04:01.948Z,26.97
2022-08-09T16:06:35.352Z,27.52
2022-08-09T16:09:05.681Z,27.73
2022-08-09T16:11:33.335Z,27.98
2022-08-09T16:14:05.961Z,28.50
2022-08-09T16:16:36.930Z,28.76
2022-08-09T16:19:08.852Z,28.59
2022-08-09T16:21:40.152Z,28.74
2022-08-09T16:24:13.027Z,28.94
2022-08-09T16:26:55.293Z,28.45
2022-08-09T16:29:37.536Z,28.03
2022-08-09T16:32:33.598Z,27.48
2022-08-09T16:34:58.309Z,27.02
2022-08-09T16:37:55.474Z,26.64
2022-08-09T16:40:14.500Z,26.30
2022-08-09T16:42:57.706Z,26.12
2022-08-09T16:45:24.679Z,26.10
2022-08-09T16:48:42.959Z,26.13
2022-08-09T16:50:42.202Z,26.04
2022-08-09T16:53:26.763Z,25.93
2022-08-09T16:56:04.838Z,25.92
2022-08-09T16:58:36.762Z,26.01
2022-08-09T17:01:04.425Z,26.05
2022-08-09T17:03:31.452Z,25.93
2022-08-09T17:06:07.078Z,25.74
2022-08-09T17:09:00.109Z,25.70
2022-08-09T17:11:40.854Z,25.48
2022-08-09T17:14:25.447Z,25.29
2022-08-09T17:17:01.482Z,24.98
2022-08-09T17:19:47.542Z,24.76
2022-08-09T17:22:25.003Z,24.62
2022-08-09T17:25:03.828Z,24.47
2022-08-09T17:27:38.242Z,24.30
2022-08-09T17:30:07.100Z,24.14
2022-08-09T17:32:39.969Z,24.13
2022-08-09T17:35:13.243Z,24.11
2022-08-09T17:38:02.525Z,24.04
2022-08-09T17:40:29.536Z,23.92
2022-08-09T17:42:59.174Z,23.86
2022-08-09T17:46:01.659Z,23.99
2022-08-09T17:48:16.749Z,24.11
2022-08-09T17:50:55.921Z,24.19
2022-08-09T17:53:23.551Z,24.26
2022-08-09T17:55:55.700Z,24.33
2022-08-09T17:58:26.801Z,24.33
2022-08-09T18:00:56.693Z,24.39
2022-08-09T18:03:25.443Z,24.46
2022-08-09T18:05:53.638Z,24.45
2022-08-09T18:08:22.154Z,24.40
2022-08-09T18:11:01.846Z,24.28
2022-08-09T18:13:53.555Z,24.30
2022-08-09T18:16:30.258Z,24.26
2022-08-09T18:19:04.094Z,24.25
2022-08-09T18:21:50.398Z,24.09
2022-08-09T18:24:19.558Z,24.01
2022-08-09T18:26:48.230Z,23.94
2022-08-09T18:30:40.038Z,23.82
2022-08-09T18:32:04.971Z,23.63
2022-08-09T18:34:35.442Z,23.42
2022-08-09T18:37:03.578Z,23.19
2022-08-09T18:39:32.615Z,23.19
2022-08-09T18:42:08.830Z,23.12
2022-08-09T18:44:36.043Z,22.99
2022-08-09T18:47:07.681Z,22.87
2022-08-09T18:49:41.445Z,22.75
2022-08-09T18:52:11.727Z,22.65
2022-08-09T18:54:49.528Z,22.59
2022-08-09T18:57:22.185Z,22.52
2022-08-09T18:59:55.663Z,22.44
2022-08-09T19:02:30.759Z,22.37
2022-08-09T19:05:20.076Z,22.34
2022-08-09T19:08:03.902Z,22.31
2022-08-09T19:10:39.123Z,22.19
2022-08-09T19:13:19.196Z,22.05
2022-08-09T19:15:49.955Z,21.97
2022-08-09T19:18:33.710Z,21.87
2022-08-09T19:21:09.944Z,21.73
2022-08-09T19:24:33.280Z,21.66
2022-08-09T19:26:30.989Z,21.50
2022-08-09T19:29:15.417Z,21.52
2022-08-09T19:31:51.211Z,21.43
2022-08-09T19:34:21.972Z,21.35
2022-08-09T19:36:59.368Z,21.31
2022-08-09T19:39:29.035Z,21.30
2022-08-09T19:42:14.440Z,21.26
2022-08-09T19:44:42.574Z,21.27
2022-08-09T19:47:09.429Z,21.24
2022-08-09T19:50:09.442Z,21.22
2022-08-09T19:52:26.574Z,21.14
2022-08-09T19:54:53.355Z,21.09
2022-08-09T19:57:20.144Z,21.05
2022-08-09T20:00:06.602Z,21.00
2022-08-09T20:04:12.177Z,20.89
2022-08-09T20:05:25.319Z,20.86
2022-08-09T20:07:58.674Z,20.79
2022-08-09T20:10:34.294Z,20.75
2022-08-09T20:13:05.127Z,20.62
2022-08-09T20:16:38.343Z,20.56
2022-08-09T20:18:19.741Z,20.44
2022-08-09T20:20:47.204Z,20.42
2022-08-09T20:23:17.432Z,20.31
2022-08-09T20:25:51.651Z,20.29
2022-08-09T20:28:24.383Z,20.26
2022-08-09T20:30:55.229Z,20.24
2022-08-09T20:33:22.259Z,20.24
2022-08-09T20:35:50.634Z,20.24
2022-08-09T20:38:40.811Z,20.22
2022-08-09T20:41:06.099Z,20.19
2022-08-09T20:43:33.053Z,20.12
2022-08-09T20:46:33.533Z,20.15
2022-08-09T20:48:48.367Z,20.08
2022-08-09T20:51:19.202Z,20.07
2022-08-09T20:53:46.657Z,19.97
2022-08-09T20:56:21.125Z,19.91
2022-08-09T20:58:50.033Z,19.85
2022-08-09T21:01:35.221Z,19.84
2022-08-09T21:05:48.481Z,19.81
2022-08-09T21:06:51.194Z,19.74
2022-08-09T21:09:25.064Z,19.71
2022-08-09T21:14:37.013Z,19.56
2022-08-09T21:18:22.018Z,19.55
2022-08-09T21:20:18.592Z,19.56
2022-08-09T21:22:46.971Z,19.49
2022-08-09T21:25:37.678Z,19.44
2022-08-09T21:28:04.744Z,19.37
2022-08-09T21:30:34.283Z,19.29
2022-08-09T21:33:05.856Z,19.28
2022-08-09T21:35:40.660Z,19.28
2022-08-09T21:38:09.232Z,19.26
2022-08-09T21:40:37.204Z,19.20
2022-08-09T21:43:06.092Z,19.18
2022-08-09T21:45:39.027Z,19.08
2022-08-09T21:48:07.720Z,19.08
2022-08-09T21:50:38.417Z,19.02
2022-08-09T21:53:15.636Z,18.99
2022-08-09T21:55:49.303Z,18.99
2022-08-09T21:58:16.432Z,19.02
2022-08-09T22:00:43.912Z,19.00
2022-08-09T22:03:19.644Z,18.97
2022-08-09T22:05:52.218Z,19.05
2022-08-09T22:08:19.515Z,18.98
2022-08-09T22:11:48.917Z,19.09
2022-08-09T22:13:39.369Z,19.13
2022-08-09T22:16:11.066Z,19.12
2022-08-09T22:18:53.664Z,19.15
2022-08-09T22:21:49.651Z,19.14
2022-08-09T22:24:16.859Z,19.04
2022-08-09T22:26:51.480Z,19.02
2022-08-09T22:29:19.704Z,18.96
2022-08-09T22:31:56.248Z,18.89
2022-08-09T22:34:25.652Z,18.82
2022-08-09T22:36:55.859Z,18.77
2022-08-09T22:39:55.707Z,18.71
2022-08-09T22:42:22.163Z,18.70
2022-08-09T22:45:11.543Z,18.60
2022-08-09T22:48:12.784Z,18.72
2022-08-09T22:50:25.013Z,18.71
2022-08-09T22:52:54.953Z,18.79
2022-08-09T22:55:39.344Z,18.81
2022-08-09T22:58:30.949Z,18.71
2022-08-09T23:01:04.259Z,18.64
2022-08-09T23:04:03.782Z,18.58
2022-08-09T23:06:35.118Z,18.52
2022-08-09T23:09:04.519Z,18.45
2022-08-09T23:11:31.247Z,18.38
2022-08-09T23:13:59.766Z,18.21
2022-08-09T23:16:26.532Z,18.05
2022-08-09T23:18:53.219Z,17.97
2022-08-09T23:21:26.772Z,17.82
2022-08-09T23:24:06.371Z,17.81
2022-08-09T23:26:37.144Z,17.74
2022-08-09T23:29:13.976Z,17.73
2022-08-09T23:31:41.538Z,17.73
2022-08-09T23:34:09.017Z,17.81
2022-08-09T23:36:36.451Z,17.84
2022-08-09T23:39:05.128Z,17.76
2022-08-09T23:41:31.963Z,17.76
2022-08-09T23:44:01.224Z,17.72
2022-08-09T23:46:29.318Z,17.76
2022-08-09T23:48:56.464Z,17.75
2022-08-09T23:51:23.445Z,17.83
2022-08-09T23:53:50.497Z,17.88
2022-08-09T23:56:52.665Z,17.86
2022-08-09T23:59:06.069Z,17.76
